createdAt,value
2019-02-05T00:00:19.935Z,0.00
2019-02-05T00:02:12.825Z,0.00
2019-02-05T00:03:12.837Z,0.00
2019-02-05T00:05:05.762Z,0.00
2019-02-05T00:06:05.742Z,0.00
2019-02-05T00:07:58.645Z,0.00
2019-02-05T00:08:58.646Z,0.00
2019-02-05T00:10:51.537Z,0.00
2019-02-05T00:11:51.548Z,0.00
2019-02-05T00:13:44.451Z,0.00
2019-02-05T00:14:44.451Z,0.00
2019-02-05T00:16:37.346Z,0.00
2019-02-05T00:17:37.356Z,0.00
2019-02-05T00:19:30.256Z,0.00
2019-02-05T00:20:30.260Z,0.00
2019-02-05T00:22:23.153Z,0.00
2019-02-05T00:23:23.164Z,0.00
2019-02-05T00:25:16.065Z,0.00
2019-02-05T00:26:16.067Z,0.00
2019-02-05T00:28:08.969Z,0.00
2019-02-05T00:29:08.971Z,0.00
2019-02-05T00:31:01.864Z,0.00
2019-02-05T00:32:01.876Z,0.00
2019-02-05T00:33:54.779Z,0.00
2019-02-05T00:34:54.780Z,0.00
2019-02-05T00:36:47.678Z,0.00
2019-02-05T00:37:47.684Z,0.00
2019-02-05T00:39:40.584Z,0.00
2019-02-05T00:40:40.587Z,0.00
2019-02-05T00:42:33.484Z,0.00
2019-02-05T00:43:33.493Z,0.00
2019-02-05T00:45:26.534Z,0.00
2019-02-05T00:46:26.539Z,0.00
2019-02-05T00:48:19.437Z,0.00
2019-02-05T00:49:19.443Z,0.00
2019-02-05T00:51:12.336Z,0.00
2019-02-05T00:52:12.344Z,0.00
2019-02-05T00:54:05.241Z,0.00
2019-02-05T00:55:05.245Z,0.00
2019-02-05T00:56:58.140Z,0.00
2019-02-05T00:57:58.152Z,0.00
2019-02-05T00:59:51.053Z,0.00
2019-02-05T01:00:51.056Z,0.00
2019-02-05T01:02:43.946Z,0.00
2019-02-05T01:03:43.957Z,0.00
2019-02-05T01:05:36.858Z,0.00
2019-02-05T01:06:36.859Z,0.00
2019-02-05T01:08:29.765Z,0.00
2019-02-05T01:09:29.768Z,0.00
2019-02-05T01:11:22.660Z,0.00
2019-02-05T01:12:22.672Z,0.00
2019-02-05T01:14:15.576Z,0.00
2019-02-05T01:15:15.582Z,0.00
2019-02-05T01:17:08.472Z,0.00
2019-02-05T01:18:08.483Z,0.00
2019-02-05T01:20:01.387Z,0.00
2019-02-05T01:21:01.390Z,0.00
2019-02-05T01:22:54.281Z,0.00
2019-02-05T01:23:54.294Z,0.00
2019-02-05T01:25:47.201Z,0.00
2019-02-05T01:26:47.200Z,0.00
2019-02-05T01:28:40.099Z,0.00
2019-02-05T01:29:40.101Z,0.00
2019-02-05T01:31:32.997Z,0.00
2019-02-05T01:32:33.005Z,0.00
2019-02-05T01:34:25.903Z,0.00
2019-02-05T01:35:25.905Z,0.00
2019-02-05T01:37:18.800Z,0.00
2019-02-05T01:38:18.809Z,0.00
2019-02-05T01:40:11.710Z,0.00
2019-02-05T01:41:11.715Z,0.00
2019-02-05T01:43:04.677Z,0.00
2019-02-05T01:44:04.618Z,0.00
2019-02-05T01:45:57.518Z,0.00
2019-02-05T01:46:57.520Z,0.00
2019-02-05T01:48:50.422Z,0.00
2019-02-05T01:49:50.423Z,0.00
2019-02-05T01:51:43.318Z,0.00
2019-02-05T01:52:43.328Z,0.00
2019-02-05T01:54:36.226Z,0.00
2019-02-05T01:55:36.229Z,0.00
2019-02-05T01:57:29.123Z,0.00
2019-02-05T01:58:29.135Z,0.00
2019-02-05T02:00:22.034Z,0.00
2019-02-05T02:01:22.034Z,0.00
2019-02-05T02:03:14.931Z,0.00
2019-02-05T02:04:14.938Z,0.00
2019-02-05T02:06:07.838Z,0.00
2019-02-05T02:07:07.841Z,0.00
2019-02-05T02:09:00.741Z,0.00
2019-02-05T02:10:00.743Z,0.00
2019-02-05T02:11:53.640Z,0.00
2019-02-05T02:12:53.647Z,0.00
2019-02-05T02:14:46.569Z,0.00
2019-02-05T02:15:46.550Z,0.00
2019-02-05T02:17:39.447Z,0.00
2019-02-05T02:18:39.454Z,0.00
2019-02-05T02:20:32.353Z,0.00
2019-02-05T02:21:32.356Z,0.00
2019-02-05T02:23:25.253Z,0.00
2019-02-05T02:24:25.258Z,0.00
2019-02-05T02:26:18.159Z,0.00
2019-02-05T02:27:18.160Z,0.00
2019-02-05T02:29:11.062Z,0.00
2019-02-05T02:30:11.167Z,0.00
2019-02-05T02:32:03.956Z,0.00
2019-02-05T02:33:03.970Z,0.00
2019-02-05T02:34:56.870Z,0.00
2019-02-05T02:35:56.873Z,0.00
2019-02-05T02:37:49.768Z,0.00
2019-02-05T02:38:49.775Z,0.00
2019-02-05T02:40:42.676Z,0.00
2019-02-05T02:41:42.686Z,0.00
2019-02-05T02:43:35.573Z,0.00
2019-02-05T02:44:35.581Z,0.00
2019-02-05T02:46:28.485Z,0.00
2019-02-05T02:47:28.485Z,0.00
2019-02-05T02:49:21.383Z,0.00
2019-02-05T02:50:21.483Z,0.00
2019-02-05T02:52:14.280Z,0.00
2019-02-05T02:53:14.291Z,0.00
2019-02-05T02:55:07.191Z,0.00
2019-02-05T02:56:07.192Z,0.00
2019-02-05T02:58:00.088Z,0.00
2019-02-05T02:59:00.097Z,0.00
2019-02-05T03:00:52.994Z,0.00
2019-02-05T03:01:52.999Z,0.00
2019-02-05T03:03:45.897Z,0.00
2019-02-05T03:04:45.908Z,0.00
2019-02-05T03:06:38.809Z,0.00
2019-02-05T03:07:39.041Z,0.00
2019-02-05T03:09:31.708Z,0.00
2019-02-05T03:10:31.712Z,0.00
2019-02-05T03:12:24.603Z,0.00
2019-02-05T03:13:24.618Z,0.00
2019-02-05T03:15:17.515Z,0.00
2019-02-05T03:16:17.520Z,0.00
2019-02-05T03:18:10.412Z,0.00
2019-02-05T03:19:10.426Z,0.00
2019-02-05T03:21:03.324Z,0.00
2019-02-05T03:22:03.326Z,0.00
2019-02-05T03:23:56.217Z,0.00
2019-02-05T03:24:56.228Z,0.00
2019-02-05T03:26:49.130Z,0.00
2019-02-05T03:27:49.132Z,0.00
2019-02-05T03:29:42.032Z,0.00
2019-02-05T03:30:42.034Z,0.00
2019-02-05T03:32:34.929Z,0.00
2019-02-05T03:33:34.943Z,0.00
2019-02-05T03:35:27.839Z,0.00
2019-02-05T03:36:27.843Z,0.00
2019-02-05T03:38:20.733Z,0.00
2019-02-05T03:39:20.746Z,0.00
2019-02-05T03:41:13.645Z,0.00
2019-02-05T03:42:13.648Z,0.00
2019-02-05T03:44:06.543Z,0.00
2019-02-05T03:45:06.551Z,0.00
2019-02-05T03:46:59.454Z,0.00
2019-02-05T03:47:59.455Z,0.00
2019-02-05T03:49:52.359Z,0.00
2019-02-05T03:50:52.357Z,0.00
2019-02-05T03:52:45.256Z,0.00
2019-02-05T03:53:45.267Z,0.00
2019-02-05T03:55:38.166Z,0.00
2019-02-05T03:56:38.168Z,0.00
2019-02-05T03:58:31.060Z,0.00
2019-02-05T03:59:31.073Z,0.00
2019-02-05T04:01:23.973Z,0.00
2019-02-05T04:02:23.978Z,0.00
2019-02-05T04:04:16.871Z,0.00
2019-02-05T04:05:16.883Z,0.00
2019-02-05T04:07:09.781Z,0.00
2019-02-05T04:08:09.783Z,0.00
2019-02-05T04:10:02.690Z,0.00
2019-02-05T04:11:02.689Z,0.00
2019-02-05T04:12:55.583Z,0.00
2019-02-05T04:13:55.596Z,0.00
2019-02-05T04:15:48.496Z,0.00
2019-02-05T04:16:48.499Z,0.00
2019-02-05T04:18:41.394Z,0.00
2019-02-05T04:19:41.401Z,0.00
2019-02-05T04:21:34.300Z,0.00
2019-02-05T04:22:34.301Z,0.00
2019-02-05T04:24:27.198Z,0.00
2019-02-05T04:25:27.205Z,0.00
2019-02-05T04:27:20.104Z,0.00
2019-02-05T04:28:20.107Z,0.00
2019-02-05T04:30:13.025Z,0.00
2019-02-05T04:31:13.029Z,0.00
2019-02-05T04:33:05.911Z,0.00
2019-02-05T04:34:05.921Z,0.00
2019-02-05T04:35:58.829Z,0.00
2019-02-05T04:36:58.822Z,0.00
2019-02-05T04:38:51.718Z,0.00
2019-02-05T04:39:51.728Z,0.00
2019-02-05T04:41:44.627Z,0.00
2019-02-05T04:42:44.708Z,0.00
2019-02-05T04:44:37.525Z,0.00
2019-02-05T04:45:37.534Z,0.00
2019-02-05T04:47:30.433Z,0.00
2019-02-05T04:48:30.435Z,0.00
2019-02-05T04:50:23.358Z,0.00
2019-02-05T04:51:23.339Z,0.00
2019-02-05T04:53:16.233Z,0.00
2019-02-05T04:54:16.241Z,0.00
2019-02-05T04:56:09.146Z,0.00
2019-02-05T04:57:09.146Z,0.00
2019-02-05T04:59:02.055Z,0.00
2019-02-05T05:00:02.055Z,0.00
2019-02-05T05:01:54.952Z,0.00
2019-02-05T05:02:54.958Z,0.00
2019-02-05T05:04:47.846Z,0.00
2019-02-05T05:05:47.857Z,0.00
2019-02-05T05:07:40.762Z,0.00
2019-02-05T05:08:40.760Z,0.00
2019-02-05T05:10:33.655Z,0.00
2019-02-05T05:11:33.663Z,0.00
2019-02-05T05:13:26.562Z,0.00
2019-02-05T05:14:26.571Z,0.00
2019-02-05T05:16:19.464Z,0.00
2019-02-05T05:17:19.468Z,0.00
2019-02-05T05:19:12.368Z,0.00
2019-02-05T05:20:12.372Z,0.00
2019-02-05T05:22:05.272Z,0.00
2019-02-05T05:23:05.274Z,0.00
2019-02-05T05:24:58.168Z,0.00
2019-02-05T05:25:58.175Z,0.00
2019-02-05T05:27:51.074Z,0.00
2019-02-05T05:28:51.078Z,0.00
2019-02-05T05:30:43.971Z,0.00
2019-02-05T05:31:43.981Z,0.00
2019-02-05T05:33:36.882Z,0.00
2019-02-05T05:34:36.883Z,0.00
2019-02-05T05:36:29.784Z,0.00
2019-02-05T05:37:29.785Z,0.00
2019-02-05T05:39:22.746Z,0.00
2019-02-05T05:40:22.686Z,0.00
2019-02-05T05:42:15.587Z,0.00
2019-02-05T05:43:15.590Z,0.00
2019-02-05T05:45:08.487Z,0.00
2019-02-05T05:46:08.498Z,0.00
2019-02-05T05:48:01.398Z,0.00
2019-02-05T05:49:01.405Z,0.00
2019-02-05T05:50:54.295Z,0.00
2019-02-05T05:51:54.303Z,0.00
2019-02-05T05:53:47.208Z,0.00
2019-02-05T05:54:47.208Z,0.00
2019-02-05T05:56:40.110Z,0.00
2019-02-05T05:57:40.111Z,0.00
2019-02-05T05:59:33.013Z,0.00
2019-02-05T06:00:33.024Z,0.00
2019-02-05T06:02:25.927Z,0.00
2019-02-05T06:03:25.926Z,0.00
2019-02-05T06:05:18.822Z,0.00
2019-02-05T06:06:18.833Z,0.00
2019-02-05T06:08:11.750Z,0.00
2019-02-05T06:09:11.744Z,0.00
2019-02-05T06:11:04.631Z,0.00
2019-02-05T06:12:04.636Z,0.00
2019-02-05T06:13:57.541Z,0.00
2019-02-05T06:14:57.543Z,0.00
2019-02-05T06:16:50.448Z,0.00
2019-02-05T06:17:50.444Z,0.00
2019-02-05T06:19:43.338Z,0.00
2019-02-05T06:20:43.347Z,0.00
2019-02-05T06:22:36.250Z,0.00
2019-02-05T06:23:36.252Z,0.00
2019-02-05T06:25:29.144Z,0.00
2019-02-05T06:26:29.161Z,0.00
2019-02-05T06:28:34.029Z,0.00
2019-02-05T06:29:22.056Z,0.00
2019-02-05T06:31:14.948Z,0.00
2019-02-05T06:32:14.960Z,0.00
2019-02-05T06:34:07.861Z,0.00
2019-02-05T06:35:07.862Z,0.00
2019-02-05T06:37:00.768Z,4.00
2019-02-05T06:38:00.768Z,4.00
2019-02-05T06:39:53.659Z,0.00
2019-02-05T06:40:53.686Z,4.00
2019-02-05T06:42:46.568Z,4.00
2019-02-05T06:43:46.571Z,4.00
2019-02-05T06:45:41.516Z,4.00
2019-02-05T06:46:39.475Z,8.00
2019-02-05T06:48:32.374Z,12.00
2019-02-05T06:49:32.377Z,12.00
2019-02-05T06:51:25.274Z,16.00
2019-02-05T06:52:25.280Z,16.00
2019-02-05T06:54:18.181Z,24.00
2019-02-05T06:55:18.185Z,24.00
2019-02-05T06:57:11.086Z,28.00
2019-02-05T06:58:11.088Z,32.00
2019-02-05T07:00:03.983Z,36.00
2019-02-05T07:01:03.993Z,36.00
2019-02-05T07:02:56.892Z,48.00
2019-02-05T07:03:56.896Z,52.00
2019-02-05T07:05:49.791Z,64.00
2019-02-05T07:06:49.802Z,60.00
2019-02-05T07:08:42.754Z,60.00
2019-02-05T07:09:42.703Z,72.00
2019-02-05T07:11:35.598Z,88.00
2019-02-05T07:12:35.608Z,104.00
2019-02-05T07:14:28.509Z,124.00
2019-02-05T07:15:28.512Z,140.00
2019-02-05T07:17:21.411Z,148.00
2019-02-05T07:18:21.413Z,144.00
2019-02-05T07:20:14.306Z,160.00
2019-02-05T07:21:14.316Z,164.00
2019-02-05T07:23:07.216Z,160.00
2019-02-05T07:24:07.217Z,172.00
2019-02-05T07:26:00.191Z,208.00
2019-02-05T07:27:00.121Z,196.00
2019-02-05T07:29:00.050Z,244.00
2019-02-05T07:29:53.026Z,256.00
2019-02-05T07:31:45.916Z,268.00
2019-02-05T07:32:45.928Z,244.00
2019-02-05T07:34:38.830Z,284.00
2019-02-05T07:35:38.834Z,300.00
2019-02-05T07:37:31.741Z,296.00
2019-02-05T07:38:31.738Z,268.00
2019-02-05T07:40:24.640Z,280.00
2019-02-05T07:41:24.643Z,320.00
2019-02-05T07:43:17.543Z,320.00
2019-02-05T07:44:17.574Z,328.00
2019-02-05T07:46:10.537Z,468.00
2019-02-05T07:47:10.548Z,456.00
2019-02-05T07:49:03.449Z,412.00
2019-02-05T07:50:03.452Z,420.00
2019-02-05T07:51:56.347Z,464.00
2019-02-05T07:52:56.354Z,468.00
2019-02-05T07:54:49.253Z,472.00
2019-02-05T07:55:49.259Z,468.00
2019-02-05T07:57:42.156Z,448.00
2019-02-05T07:58:42.159Z,488.00
2019-02-05T08:00:35.059Z,488.00
2019-02-05T08:01:35.065Z,596.00
2019-02-05T08:03:27.965Z,700.00
2019-02-05T08:04:27.967Z,648.00
2019-02-05T08:06:20.860Z,744.00
2019-02-05T08:07:20.869Z,716.00
2019-02-05T08:09:13.770Z,676.00
2019-02-05T08:10:13.775Z,688.00
2019-02-05T08:12:06.671Z,724.00
2019-02-05T08:13:06.684Z,708.00
2019-02-05T08:14:59.584Z,856.00
2019-02-05T08:15:59.585Z,912.00
2019-02-05T08:17:52.484Z,856.00
2019-02-05T08:18:52.486Z,1028.00
2019-02-05T08:20:45.378Z,884.00
2019-02-05T08:21:45.388Z,932.00
2019-02-05T08:23:38.288Z,908.00
2019-02-05T08:24:38.292Z,940.00
2019-02-05T08:26:31.182Z,1060.00
2019-02-05T08:27:31.195Z,996.00
2019-02-05T08:29:24.093Z,1260.00
2019-02-05T08:30:24.099Z,1072.00
2019-02-05T08:32:16.996Z,1012.00
2019-02-05T08:33:17.004Z,964.00
2019-02-05T08:35:09.903Z,1008.00
2019-02-05T08:36:09.907Z,996.00
2019-02-05T08:38:02.805Z,1008.00
2019-02-05T08:39:02.809Z,984.00
2019-02-05T08:40:55.704Z,1152.00
2019-02-05T08:41:55.713Z,1136.00
2019-02-05T08:43:48.626Z,896.00
2019-02-05T08:44:48.616Z,1108.00
2019-02-05T08:46:41.512Z,1216.00
2019-02-05T08:47:41.522Z,1064.00
2019-02-05T08:49:34.422Z,1096.00
2019-02-05T08:50:34.425Z,1040.00
2019-02-05T08:52:27.317Z,1068.00
2019-02-05T08:53:27.331Z,1168.00
2019-02-05T08:55:20.229Z,1104.00
2019-02-05T08:56:20.233Z,1080.00
2019-02-05T08:58:13.137Z,1160.00
2019-02-05T08:59:13.136Z,1052.00
2019-02-05T09:01:06.029Z,1180.00
2019-02-05T09:02:06.039Z,1156.00
2019-02-05T09:03:58.938Z,1292.00
2019-02-05T09:04:58.938Z,1460.00
2019-02-05T09:06:51.838Z,1360.00
2019-02-05T09:07:51.850Z,1268.00
2019-02-05T09:09:44.747Z,1252.00
2019-02-05T09:10:44.748Z,1468.00
2019-02-05T09:12:37.643Z,1380.00
2019-02-05T09:13:37.654Z,1572.00
2019-02-05T09:15:30.559Z,1368.00
2019-02-05T09:16:30.563Z,1356.00
2019-02-05T09:18:23.463Z,1252.00
2019-02-05T09:19:23.464Z,1384.00
2019-02-05T09:21:16.360Z,1348.00
2019-02-05T09:22:16.371Z,1332.00
2019-02-05T09:24:09.274Z,1332.00
2019-02-05T09:25:09.277Z,1312.00
2019-02-05T09:27:02.174Z,1244.00
2019-02-05T09:28:02.731Z,1332.00
2019-02-05T09:29:55.085Z,1332.00
2019-02-05T09:30:55.086Z,1320.00
2019-02-05T09:32:47.984Z,1148.00
2019-02-05T09:33:47.997Z,1280.00
2019-02-05T09:35:40.897Z,1408.00
2019-02-05T09:36:40.898Z,1312.00
2019-02-05T09:38:33.802Z,1704.00
2019-02-05T09:39:33.805Z,1576.00
2019-02-05T09:41:26.701Z,1416.00
2019-02-05T09:42:26.711Z,1436.00
2019-02-05T09:44:19.610Z,1652.00
2019-02-05T09:45:19.616Z,1528.00
2019-02-05T09:47:12.511Z,1560.00
2019-02-05T09:48:12.521Z,1580.00
2019-02-05T09:50:05.431Z,1672.00
2019-02-05T09:51:05.427Z,1528.00
2019-02-05T09:52:58.319Z,1664.00
2019-02-05T09:53:58.331Z,1624.00
2019-02-05T09:55:51.235Z,1616.00
2019-02-05T09:56:51.238Z,1600.00
2019-02-05T09:58:44.141Z,1652.00
2019-02-05T09:59:45.681Z,1496.00
2019-02-05T10:01:37.037Z,1860.00
2019-02-05T10:02:37.050Z,1748.00
2019-02-05T10:04:29.949Z,1784.00
2019-02-05T10:05:29.954Z,2012.00
2019-02-05T10:07:22.847Z,1784.00
2019-02-05T10:08:22.858Z,1804.00
2019-02-05T10:10:15.762Z,1768.00
2019-02-05T10:11:15.765Z,2036.00
2019-02-05T10:13:08.657Z,2072.00
2019-02-05T10:14:08.669Z,2048.00
2019-02-05T10:16:01.571Z,2064.00
2019-02-05T10:17:01.668Z,1836.00
2019-02-05T10:18:54.475Z,2268.00
2019-02-05T10:19:54.478Z,1960.00
2019-02-05T10:21:47.376Z,2620.00
2019-02-05T10:22:47.386Z,2424.00
2019-02-05T10:24:40.290Z,2160.00
2019-02-05T10:25:40.292Z,2140.00
2019-02-05T10:27:33.184Z,1920.00
2019-02-05T10:28:33.196Z,2160.00
2019-02-05T10:30:26.096Z,1948.00
2019-02-05T10:31:26.101Z,2624.00
2019-02-05T10:33:18.995Z,1804.00
2019-02-05T10:34:19.005Z,1608.00
2019-02-05T10:36:11.908Z,1812.00
2019-02-05T10:37:11.912Z,1680.00
2019-02-05T10:39:04.821Z,1820.00
2019-02-05T10:40:04.823Z,1712.00
2019-02-05T10:41:57.714Z,1772.00
2019-02-05T10:42:57.727Z,1648.00
2019-02-05T10:44:50.625Z,1620.00
2019-02-05T10:45:50.628Z,1692.00
2019-02-05T10:47:43.527Z,1968.00
2019-02-05T10:48:43.539Z,1864.00
2019-02-05T10:50:36.446Z,1896.00
2019-02-05T10:51:36.446Z,1860.00
2019-02-05T10:53:29.340Z,2404.00
2019-02-05T10:54:29.350Z,2440.00
2019-02-05T10:56:22.251Z,2232.00
2019-02-05T10:57:22.254Z,2084.00
2019-02-05T10:59:15.161Z,2004.00
2019-02-05T11:00:15.162Z,1940.00
2019-02-05T11:02:08.055Z,1724.00
2019-02-05T11:03:08.069Z,2080.00
2019-02-05T11:05:00.967Z,2032.00
2019-02-05T11:06:00.972Z,2236.00
2019-02-05T11:07:53.864Z,1972.00
2019-02-05T11:08:53.876Z,1912.00
2019-02-05T11:10:46.774Z,2008.00
2019-02-05T11:11:46.780Z,1820.00
2019-02-05T11:13:39.675Z,1964.00
2019-02-05T11:14:39.688Z,2036.00
2019-02-05T11:16:32.589Z,2040.00
2019-02-05T11:17:32.595Z,2112.00
2019-02-05T11:19:25.609Z,2032.00
2019-02-05T11:20:25.507Z,2176.00
2019-02-05T11:22:18.404Z,2172.00
2019-02-05T11:23:18.416Z,2280.00
2019-02-05T11:25:11.319Z,2356.00
2019-02-05T11:26:11.323Z,2228.00
2019-02-05T11:28:04.216Z,2244.00
2019-02-05T11:29:04.227Z,2140.00
2019-02-05T11:30:57.127Z,1876.00
2019-02-05T11:31:57.130Z,1868.00
2019-02-05T11:33:50.027Z,1976.00
2019-02-05T11:34:50.038Z,2056.00
2019-02-05T11:36:42.942Z,2184.00
2019-02-05T11:37:42.946Z,2128.00
2019-02-05T11:39:35.862Z,2184.00
2019-02-05T11:40:35.848Z,2104.00
2019-02-05T11:42:28.745Z,2432.00
2019-02-05T11:43:28.766Z,2256.00
2019-02-05T11:45:21.661Z,2052.00
2019-02-05T11:46:21.665Z,2036.00
2019-02-05T11:48:14.559Z,2028.00
2019-02-05T11:49:14.574Z,2012.00
2019-02-05T11:51:07.477Z,2116.00
2019-02-05T11:52:09.770Z,2184.00
2019-02-05T11:54:00.376Z,2176.00
2019-02-05T11:55:00.389Z,2212.00
2019-02-05T11:56:53.290Z,2340.00
2019-02-05T11:57:53.294Z,2552.00
2019-02-05T11:59:46.213Z,2824.00
2019-02-05T12:00:46.201Z,2440.00
2019-02-05T12:02:39.096Z,2496.00
2019-02-05T12:03:39.106Z,2776.00
2019-02-05T12:05:32.009Z,2604.00
2019-02-05T12:06:32.009Z,2540.00
2019-02-05T12:08:24.905Z,2460.00
2019-02-05T12:09:24.915Z,2472.00
2019-02-05T12:11:17.820Z,2524.00
2019-02-05T12:12:17.820Z,2460.00
2019-02-05T12:14:10.717Z,2332.00
2019-02-05T12:15:10.728Z,2640.00
2019-02-05T12:17:03.630Z,2652.00
2019-02-05T12:18:03.635Z,2660.00
2019-02-05T12:19:56.527Z,2892.00
2019-02-05T12:20:56.542Z,2632.00
2019-02-05T12:22:49.441Z,2524.00
2019-02-05T12:23:49.446Z,2544.00
2019-02-05T12:25:42.345Z,2560.00
2019-02-05T12:26:42.349Z,2592.00
2019-02-05T12:28:35.246Z,2344.00
2019-02-05T12:29:35.259Z,2484.00
2019-02-05T12:31:28.162Z,2424.00
2019-02-05T12:32:28.166Z,2340.00
2019-02-05T12:34:21.072Z,2140.00
2019-02-05T12:35:21.084Z,2132.00
2019-02-05T12:37:13.986Z,2528.00
2019-02-05T12:38:13.990Z,2540.00
2019-02-05T12:40:06.885Z,2684.00
2019-02-05T12:41:06.899Z,2412.00
2019-02-05T12:42:59.804Z,2328.00
2019-02-05T12:43:59.926Z,2332.00
2019-02-05T12:45:52.705Z,2336.00
2019-02-05T12:46:52.712Z,2596.00
2019-02-05T12:48:45.605Z,2044.00
2019-02-05T12:49:45.616Z,1912.00
2019-02-05T12:51:38.519Z,2144.00
2019-02-05T12:52:38.527Z,2176.00
2019-02-05T12:54:31.417Z,2428.00
2019-02-05T12:55:31.429Z,2068.00
2019-02-05T12:57:24.333Z,1860.00
2019-02-05T12:58:24.336Z,1692.00
2019-02-05T13:00:17.231Z,1568.00
2019-02-05T13:01:17.242Z,1520.00
2019-02-05T13:03:10.147Z,1584.00
2019-02-05T13:04:10.152Z,1636.00
2019-02-05T13:06:03.085Z,1588.00
2019-02-05T13:07:03.059Z,1536.00
2019-02-05T13:08:55.951Z,1736.00
2019-02-05T13:09:55.961Z,1764.00
2019-02-05T13:11:48.864Z,1780.00
2019-02-05T13:12:48.903Z,1744.00
2019-02-05T13:14:41.768Z,1576.00
2019-02-05T13:15:41.777Z,1616.00
2019-02-05T13:17:34.681Z,1632.00
2019-02-05T13:18:34.685Z,1688.00
2019-02-05T13:20:27.582Z,1688.00
2019-02-05T13:21:27.594Z,1620.00
2019-02-05T13:23:20.502Z,1612.00
2019-02-05T13:24:20.506Z,1604.00
2019-02-05T13:26:13.407Z,1508.00
2019-02-05T13:27:13.408Z,1508.00
2019-02-05T13:29:06.305Z,1548.00
2019-02-05T13:30:06.317Z,1492.00
2019-02-05T13:31:59.219Z,1464.00
2019-02-05T13:32:59.222Z,1472.00
2019-02-05T13:34:52.115Z,1460.00
2019-02-05T13:35:52.126Z,1428.00
2019-02-05T13:37:45.027Z,1852.00
2019-02-05T13:38:45.031Z,1492.00
2019-02-05T13:40:37.926Z,1308.00
2019-02-05T13:41:37.938Z,1568.00
2019-02-05T13:43:30.841Z,1980.00
2019-02-05T13:44:30.845Z,1924.00
2019-02-05T13:46:23.748Z,1744.00
2019-02-05T13:47:24.751Z,1632.00
2019-02-05T13:49:16.654Z,1884.00
2019-02-05T13:50:16.663Z,1804.00
2019-02-05T13:52:09.567Z,1620.00
2019-02-05T13:53:09.568Z,1984.00
2019-02-05T13:55:02.467Z,2376.00
2019-02-05T13:56:05.272Z,2328.00
2019-02-05T13:57:55.382Z,1912.00
2019-02-05T13:58:55.383Z,1576.00
2019-02-05T14:00:48.283Z,1776.00
2019-02-05T14:01:48.290Z,1960.00
2019-02-05T14:03:41.216Z,1604.00
2019-02-05T14:04:41.288Z,1616.00
2019-02-05T14:06:34.105Z,1728.00
2019-02-05T14:07:34.103Z,1860.00
2019-02-05T14:09:26.996Z,2040.00
2019-02-05T14:10:27.014Z,1996.00
2019-02-05T14:12:21.889Z,1808.00
2019-02-05T14:13:19.919Z,1612.00
2019-02-05T14:15:12.814Z,1688.00
2019-02-05T14:16:12.825Z,1612.00
2019-02-05T14:18:05.735Z,1508.00
2019-02-05T14:19:05.736Z,1568.00
2019-02-05T14:20:58.699Z,1600.00
2019-02-05T14:21:58.694Z,1656.00
2019-02-05T14:23:52.589Z,1692.00
2019-02-05T14:24:52.593Z,1720.00
2019-02-05T14:26:45.502Z,1372.00
2019-02-05T14:27:45.503Z,1424.00
2019-02-05T14:29:38.401Z,1408.00
2019-02-05T14:30:38.415Z,1460.00
2019-02-05T14:32:31.331Z,1564.00
2019-02-05T14:33:31.353Z,1576.00
2019-02-05T14:35:24.216Z,1460.00
2019-02-05T14:36:24.230Z,1604.00
2019-02-05T14:38:17.131Z,1816.00
2019-02-05T14:39:17.139Z,1828.00
2019-02-05T14:41:10.036Z,1824.00
2019-02-05T14:42:10.045Z,1848.00
2019-02-05T14:44:02.955Z,1584.00
2019-02-05T14:45:02.958Z,1504.00
2019-02-05T14:46:55.861Z,1324.00
2019-02-05T14:47:55.866Z,1296.00
2019-02-05T14:49:48.763Z,1148.00
2019-02-05T14:50:48.776Z,1100.00
2019-02-05T14:52:41.680Z,1124.00
2019-02-05T14:53:41.684Z,1028.00
2019-02-05T14:55:34.579Z,968.00
2019-02-05T14:56:34.591Z,1012.00
2019-02-05T14:58:27.494Z,928.00
2019-02-05T14:59:27.500Z,888.00
2019-02-05T15:01:20.395Z,880.00
2019-02-05T15:02:20.407Z,868.00
2019-02-05T15:04:13.310Z,776.00
2019-02-05T15:05:13.316Z,696.00
2019-02-05T15:07:06.220Z,740.00
2019-02-05T15:08:06.225Z,832.00
2019-02-05T15:09:59.121Z,712.00
2019-02-05T15:10:59.133Z,700.00
2019-02-05T15:12:52.037Z,616.00
2019-02-05T15:13:52.039Z,588.00
2019-02-05T15:15:44.936Z,496.00
2019-02-05T15:16:44.947Z,480.00
2019-02-05T15:18:37.856Z,528.00
2019-02-05T15:19:37.853Z,504.00
2019-02-05T15:21:30.751Z,492.00
2019-02-05T15:22:30.761Z,532.00
2019-02-05T15:24:24.180Z,456.00
2019-02-05T15:25:24.167Z,448.00
2019-02-05T15:27:17.069Z,572.00
2019-02-05T15:28:17.074Z,540.00
2019-02-05T15:30:09.970Z,592.00
2019-02-05T15:31:09.982Z,556.00
2019-02-05T15:33:02.885Z,472.00
2019-02-05T15:34:02.886Z,448.00
2019-02-05T15:35:55.782Z,544.00
2019-02-05T15:36:55.848Z,604.00
2019-02-05T15:38:48.699Z,452.00
2019-02-05T15:39:48.702Z,412.00
2019-02-05T15:41:41.602Z,368.00
2019-02-05T15:42:41.613Z,408.00
2019-02-05T15:44:34.515Z,448.00
2019-02-05T15:45:34.562Z,432.00
2019-02-05T15:47:27.423Z,404.00
2019-02-05T15:48:27.425Z,424.00
2019-02-05T15:50:20.326Z,348.00
2019-02-05T15:51:20.334Z,280.00
2019-02-05T15:53:13.238Z,300.00
2019-02-05T15:54:13.243Z,260.00
2019-02-05T15:56:06.184Z,240.00
2019-02-05T15:57:06.153Z,260.00
2019-02-05T15:58:59.056Z,224.00
2019-02-05T15:59:59.062Z,192.00
2019-02-05T16:01:51.955Z,160.00
2019-02-05T16:02:51.967Z,156.00
2019-02-05T16:04:44.872Z,176.00
2019-02-05T16:05:44.877Z,184.00
2019-02-05T16:07:37.788Z,148.00
2019-02-05T16:08:37.787Z,132.00
2019-02-05T16:10:30.677Z,116.00
2019-02-05T16:11:30.690Z,104.00
2019-02-05T16:13:23.597Z,92.00
2019-02-05T16:14:23.599Z,92.00
2019-02-05T16:16:16.496Z,92.00
2019-02-05T16:17:16.506Z,76.00
2019-02-05T16:19:09.409Z,64.00
2019-02-05T16:20:09.414Z,64.00
2019-02-05T16:22:02.455Z,60.00
2019-02-05T16:23:02.369Z,56.00
2019-02-05T16:24:55.219Z,48.00
2019-02-05T16:25:55.229Z,40.00
2019-02-05T16:27:48.135Z,32.00
2019-02-05T16:28:48.136Z,24.00
2019-02-05T16:30:41.033Z,16.00
2019-02-05T16:31:41.042Z,16.00
2019-02-05T16:33:33.948Z,16.00
2019-02-05T16:34:34.052Z,12.00
2019-02-05T16:36:26.841Z,8.00
2019-02-05T16:37:26.857Z,8.00
2019-02-05T16:39:19.762Z,4.00
2019-02-05T16:40:19.765Z,4.00
2019-02-05T16:42:12.670Z,8.00
2019-02-05T16:43:13.221Z,4.00
2019-02-05T16:45:05.577Z,0.00
2019-02-05T16:46:05.603Z,4.00
2019-02-05T16:47:58.484Z,4.00
2019-02-05T16:48:58.486Z,0.00
2019-02-05T16:50:51.386Z,0.00
2019-02-05T16:51:51.393Z,0.00
2019-02-05T16:53:44.296Z,0.00
2019-02-05T16:54:44.300Z,0.00
2019-02-05T16:56:37.220Z,0.00
2019-02-05T16:57:37.226Z,0.00
2019-02-05T16:59:30.130Z,0.00
2019-02-05T17:00:30.135Z,0.00
2019-02-05T17:02:29.031Z,0.00
2019-02-05T17:03:23.039Z,0.00
2019-02-05T17:05:15.942Z,0.00
2019-02-05T17:06:15.947Z,0.00
2019-02-05T17:08:08.848Z,0.00
2019-02-05T17:09:08.853Z,0.00
2019-02-05T17:11:03.773Z,0.00
2019-02-05T17:12:03.787Z,0.00
2019-02-05T17:13:56.693Z,0.00
2019-02-05T17:14:56.694Z,0.00
2019-02-05T17:16:49.593Z,0.00
2019-02-05T17:17:49.704Z,0.00
2019-02-05T17:19:42.506Z,0.00
2019-02-05T17:20:42.513Z,0.00
2019-02-05T17:22:35.408Z,0.00
2019-02-05T17:23:35.418Z,0.00
2019-02-05T17:25:28.320Z,0.00
2019-02-05T17:26:28.324Z,0.00
2019-02-05T17:28:21.228Z,0.00
2019-02-05T17:29:21.323Z,0.00
2019-02-05T17:31:14.127Z,0.00
2019-02-05T17:32:14.143Z,0.00
2019-02-05T17:34:07.040Z,0.00
2019-02-05T17:35:07.045Z,0.00
2019-02-05T17:36:59.940Z,0.00
2019-02-05T17:37:59.950Z,0.00
2019-02-05T17:39:52.854Z,0.00
2019-02-05T17:40:54.618Z,0.00
2019-02-05T17:42:45.752Z,0.00
2019-02-05T17:43:45.873Z,0.00
2019-02-05T17:45:38.668Z,0.00
2019-02-05T17:46:38.671Z,0.00
2019-02-05T17:48:31.574Z,0.00
2019-02-05T17:49:31.577Z,0.00
2019-02-05T17:51:24.472Z,0.00
2019-02-05T17:52:24.484Z,0.00
2019-02-05T17:54:17.424Z,0.00
2019-02-05T17:55:17.426Z,0.00
2019-02-05T17:57:10.324Z,0.00
2019-02-05T17:58:10.448Z,0.00
2019-02-05T18:00:03.236Z,0.00
2019-02-05T18:01:03.246Z,0.00
2019-02-05T18:02:56.136Z,0.00
2019-02-05T18:03:56.147Z,0.00
2019-02-05T18:05:49.051Z,0.00
2019-02-05T18:06:49.058Z,0.00
2019-02-05T18:08:41.975Z,0.00
2019-02-05T18:09:41.977Z,0.00
2019-02-05T18:11:34.866Z,0.00
2019-02-05T18:12:34.868Z,0.00
2019-02-05T18:14:27.782Z,0.00
2019-02-05T18:15:27.788Z,0.00
2019-02-05T18:17:20.679Z,0.00
2019-02-05T18:18:20.739Z,0.00
2019-02-05T18:20:14.834Z,0.00